createdAt,value
2019-05-16T00:02:18.405Z,97257.37
2019-05-16T00:04:44.815Z,97260.25
2019-05-16T00:07:13.492Z,97252.52
2019-05-16T00:09:40.072Z,97249.95
2019-05-16T00:12:08.682Z,97245.67
2019-05-16T00:14:38.594Z,97240.34
2019-05-16T00:17:05.338Z,97238.39
2019-05-16T00:19:31.948Z,97235.33
2019-05-16T00:22:01.327Z,97232.30
2019-05-16T00:24:29.154Z,97234.23
2019-05-16T00:26:57.919Z,97228.20
2019-05-16T00:29:27.710Z,97224.84
2019-05-16T00:31:54.429Z,97217.56
2019-05-16T00:34:21.006Z,97215.36
2019-05-16T00:36:49.637Z,97210.58
2019-05-16T00:39:18.406Z,97214.59
2019-05-16T00:41:44.563Z,97209.36
2019-05-16T00:44:12.590Z,97203.00
2019-05-16T00:46:39.207Z,97202.70
2019-05-16T00:49:08.119Z,97204.07
2019-05-16T00:51:37.688Z,97195.28
2019-05-16T00:54:04.677Z,97191.28
2019-05-16T00:56:31.267Z,97194.67
2019-05-16T00:59:00.815Z,97195.89
2019-05-16T01:01:28.292Z,97194.78
2019-05-16T01:03:55.123Z,97194.38
2019-05-16T01:06:23.655Z,97194.18
2019-05-16T01:08:50.310Z,97192.16
2019-05-16T01:11:18.454Z,97190.50
2019-05-16T01:13:48.781Z,97184.78
2019-05-16T01:16:15.466Z,97180.58
2019-05-16T01:18:42.053Z,97180.87
2019-05-16T01:21:12.236Z,97181.66
2019-05-16T01:23:38.984Z,97180.16
2019-05-16T01:26:07.814Z,97176.91
2019-05-16T01:28:37.635Z,97175.79
2019-05-16T01:31:03.936Z,97183.20
2019-05-16T01:33:30.527Z,97170.64
2019-05-16T01:35:59.645Z,97175.83
2019-05-16T01:38:28.337Z,97173.33
2019-05-16T01:40:54.531Z,97175.53
2019-05-16T01:43:28.408Z,97180.28
2019-05-16T01:45:55.114Z,97178.16
2019-05-16T01:48:21.676Z,97177.62
2019-05-16T01:50:52.374Z,97181.25
2019-05-16T01:53:19.209Z,97176.45
2019-05-16T01:55:45.922Z,97174.56
2019-05-16T01:58:15.522Z,97173.77
2019-05-16T02:00:52.584Z,97172.53
2019-05-16T02:03:10.507Z,97167.39
2019-05-16T02:05:40.346Z,97161.25
2019-05-16T02:08:08.894Z,97160.98
2019-05-16T02:10:37.728Z,97160.31
2019-05-16T02:13:05.876Z,97157.19
2019-05-16T02:15:32.756Z,97161.09
2019-05-16T02:17:59.632Z,97160.10
2019-05-16T02:20:29.174Z,97155.13
2019-05-16T02:22:55.760Z,97156.77
2019-05-16T02:25:22.473Z,97158.06
2019-05-16T02:27:50.999Z,97153.94
2019-05-16T02:30:21.336Z,97152.52
2019-05-16T02:32:45.903Z,97150.08
2019-05-16T02:35:14.919Z,97153.98
2019-05-16T02:37:42.477Z,97152.57
2019-05-16T02:40:12.056Z,97156.88
2019-05-16T02:42:41.960Z,97152.01
2019-05-16T02:45:10.643Z,97147.86
2019-05-16T02:47:37.557Z,97142.67
2019-05-16T02:50:06.359Z,97148.14
2019-05-16T02:52:32.928Z,97143.19
2019-05-16T02:55:00.920Z,97142.00
2019-05-16T02:57:31.564Z,97144.73
2019-05-16T03:00:01.770Z,97148.69
2019-05-16T03:02:27.052Z,97138.48
2019-05-16T03:04:56.168Z,97140.79
2019-05-16T03:07:36.485Z,97147.48
2019-05-16T03:09:51.485Z,97143.81
2019-05-16T03:12:21.190Z,97142.49
2019-05-16T03:14:50.361Z,97150.89
2019-05-16T03:17:16.172Z,97148.58
2019-05-16T03:19:44.893Z,97145.56
2019-05-16T03:22:11.838Z,97153.03
2019-05-16T03:24:41.753Z,97145.35
2019-05-16T03:27:10.978Z,97133.31
2019-05-16T03:29:37.647Z,97138.53
2019-05-16T03:32:04.523Z,97149.45
2019-05-16T03:34:34.729Z,97147.02
2019-05-16T03:37:03.998Z,97138.20
2019-05-16T03:39:31.423Z,97149.14
2019-05-16T03:42:01.075Z,97141.50
2019-05-16T03:44:31.462Z,97150.41
2019-05-16T03:46:56.143Z,97150.50
2019-05-16T03:49:25.096Z,97148.27
2019-05-16T03:51:51.735Z,97143.60
2019-05-16T03:54:21.102Z,97148.72
2019-05-16T03:56:51.398Z,97149.87
2019-05-16T03:59:17.208Z,97149.39
2019-05-16T04:01:43.788Z,97147.92
2019-05-16T04:04:13.890Z,97154.80
2019-05-16T04:06:41.598Z,97147.46
2019-05-16T04:09:11.879Z,97151.83
2019-05-16T04:11:42.121Z,97159.81
2019-05-16T04:14:10.626Z,97157.92
2019-05-16T04:16:37.334Z,97158.70
2019-05-16T04:19:06.191Z,97160.42
2019-05-16T04:21:33.076Z,97163.06
2019-05-16T04:24:01.207Z,97161.64
2019-05-16T04:26:31.433Z,97161.88
2019-05-16T04:29:00.767Z,97154.60
2019-05-16T04:31:30.540Z,97156.30
2019-05-16T04:33:57.412Z,97159.94
2019-05-16T04:36:24.000Z,97161.52
2019-05-16T04:38:51.346Z,97163.98
2019-05-16T04:41:21.148Z,97166.88
2019-05-16T04:43:50.585Z,97158.55
2019-05-16T04:48:50.811Z,97164.99
2019-05-16T04:51:17.196Z,97163.85
2019-05-16T04:53:43.788Z,97164.33
2019-05-16T04:56:12.184Z,97161.42
2019-05-16T04:58:40.859Z,97165.38
2019-05-16T05:01:07.364Z,97158.28
2019-05-16T05:03:36.502Z,97156.23
2019-05-16T05:06:03.369Z,97157.88
2019-05-16T05:08:57.065Z,97158.01
2019-05-16T05:11:21.242Z,97161.05
2019-05-16T05:13:46.376Z,97158.47
2019-05-16T05:16:13.125Z,97157.58
2019-05-16T05:18:42.177Z,97157.36
2019-05-16T05:21:11.417Z,97151.47
2019-05-16T05:23:37.672Z,97159.20
2019-05-16T05:26:06.264Z,97159.70
2019-05-16T05:28:32.856Z,97164.12
2019-05-16T05:30:59.870Z,97171.03
2019-05-16T05:33:30.456Z,97173.63
2019-05-16T05:35:57.101Z,97175.72
2019-05-16T05:38:23.976Z,97177.68
2019-05-16T05:40:53.277Z,97176.33
2019-05-16T05:43:21.476Z,97187.49
2019-05-16T05:45:50.917Z,97180.20
2019-05-16T05:48:21.483Z,97177.89
2019-05-16T05:50:47.435Z,97180.89
2019-05-16T05:53:14.191Z,97180.20
2019-05-16T05:55:42.934Z,97181.70
2019-05-16T05:58:10.153Z,97179.73
2019-05-16T06:00:36.711Z,97187.13
2019-05-16T06:03:06.001Z,97193.45
2019-05-16T06:05:32.859Z,97196.80
2019-05-16T06:08:00.278Z,97199.36
2019-05-16T06:10:30.475Z,97198.96
2019-05-16T06:12:57.354Z,97200.30
2019-05-16T06:15:23.932Z,97202.39
2019-05-16T06:18:00.061Z,97201.09
2019-05-16T06:20:25.656Z,97203.22
2019-05-16T06:22:52.260Z,97202.55
2019-05-16T06:25:23.194Z,97208.09
2019-05-16T06:27:51.191Z,97210.20
2019-05-16T06:30:20.615Z,97207.41
2019-05-16T06:32:50.182Z,97203.44
2019-05-16T06:35:16.884Z,97208.45
2019-05-16T06:37:43.481Z,97205.35
2019-05-16T06:40:12.913Z,97206.05
2019-05-16T06:42:40.248Z,97213.70
2019-05-16T06:45:10.117Z,97205.27
2019-05-16T06:47:41.309Z,97214.22
2019-05-16T06:50:11.445Z,97211.48
2019-05-16T06:52:36.319Z,97209.52
2019-05-16T06:55:09.862Z,97210.91
2019-05-16T06:57:36.367Z,97199.58
2019-05-16T07:00:03.262Z,97201.84
2019-05-16T07:02:36.068Z,97205.38
2019-05-16T07:05:02.952Z,97204.77
2019-05-16T07:07:30.762Z,97213.42
2019-05-16T07:10:04.692Z,97212.69
2019-05-16T07:12:33.784Z,97212.40
2019-05-16T07:15:01.236Z,97207.42
2019-05-16T07:17:31.526Z,97207.42
2019-05-16T07:20:05.112Z,97196.93
2019-05-16T07:22:31.200Z,97202.17
2019-05-16T07:25:00.074Z,97201.80
2019-05-16T07:27:26.744Z,97199.68
2019-05-16T07:29:53.495Z,97202.53
2019-05-16T07:32:22.487Z,97188.70
2019-05-16T07:34:50.992Z,97195.64
2019-05-16T07:37:19.884Z,97197.07
2019-05-16T07:39:51.102Z,97202.29
2019-05-16T07:42:16.998Z,97198.20
2019-05-16T07:44:45.956Z,97195.77
2019-05-16T07:47:20.298Z,97201.91
2019-05-16T07:49:47.338Z,97195.87
2019-05-16T07:52:20.623Z,97200.19
2019-05-16T07:54:50.707Z,97195.34
2019-05-16T07:57:37.249Z,97193.89
2019-05-16T08:00:07.069Z,97191.95
2019-05-16T08:02:40.229Z,97196.36
2019-05-16T08:05:10.328Z,97191.99
2019-05-16T08:07:40.753Z,97191.36
2019-05-16T08:10:07.722Z,97191.22
2019-05-16T08:12:40.599Z,97184.00
2019-05-16T08:17:44.260Z,97178.48
2019-05-16T08:20:10.795Z,97175.72
2019-05-16T08:22:43.315Z,97177.69
2019-05-16T08:25:15.692Z,97177.16
2019-05-16T08:27:52.016Z,97175.98
2019-05-16T08:30:21.056Z,97175.23
2019-05-16T08:32:52.842Z,97171.23
2019-05-16T08:35:21.092Z,97170.88
2019-05-16T08:37:47.258Z,97170.83
2019-05-16T08:40:21.303Z,97173.95
2019-05-16T08:42:45.624Z,97165.30
2019-05-16T08:45:13.154Z,97165.22
2019-05-16T08:47:46.447Z,97158.55
2019-05-16T08:50:21.740Z,97157.78
2019-05-16T08:52:52.912Z,97151.42
2019-05-16T08:55:21.916Z,97153.95
2019-05-16T08:57:52.815Z,97150.72
2019-05-16T09:00:21.777Z,97149.12
2019-05-16T09:02:53.263Z,97147.33
2019-05-16T09:05:22.673Z,97141.43
2019-05-16T09:07:49.087Z,97140.92
2019-05-16T09:10:49.809Z,97142.02
2019-05-16T09:12:49.431Z,97139.05
2019-05-16T09:15:17.063Z,97134.78
2019-05-16T09:17:47.455Z,97135.53
2019-05-16T09:20:17.408Z,97133.18
2019-05-16T09:22:44.635Z,97135.20
2019-05-16T09:25:13.451Z,97133.91
2019-05-16T09:27:40.060Z,97129.86
2019-05-16T09:30:07.936Z,97124.12
2019-05-16T09:32:42.381Z,97120.98
2019-05-16T09:35:08.169Z,97115.72
2019-05-16T09:37:37.348Z,97122.41
2019-05-16T09:40:06.487Z,97121.80
2019-05-16T09:42:33.216Z,97108.69
2019-05-16T09:45:02.161Z,97109.94
2019-05-16T09:47:31.671Z,97112.47
2019-05-16T09:49:59.330Z,97109.11
2019-05-16T09:52:27.395Z,97112.66
2019-05-16T09:57:32.538Z,97106.77
2019-05-16T10:00:06.629Z,97110.17
2019-05-16T10:05:26.624Z,97104.81
2019-05-16T10:07:58.180Z,97101.77
2019-05-16T10:10:26.277Z,97093.48
2019-05-16T10:12:54.269Z,97097.04
2019-05-16T10:15:26.963Z,97095.26
2019-05-16T10:17:53.511Z,97085.05
2019-05-16T10:20:20.415Z,97077.42
2019-05-16T10:22:50.862Z,97086.78
2019-05-16T10:25:19.535Z,97081.41
2019-05-16T10:27:47.568Z,97084.27
2019-05-16T10:30:17.560Z,97088.16
2019-05-16T10:32:47.208Z,97080.87
2019-05-16T10:35:13.251Z,97082.29
2019-05-16T10:37:42.389Z,97087.03
2019-05-16T10:40:09.117Z,97084.88
2019-05-16T10:42:38.037Z,97083.14
2019-05-16T10:45:08.710Z,97082.38
2019-05-16T10:47:37.494Z,97078.42
2019-05-16T10:50:08.459Z,97075.48
2019-05-16T10:52:37.419Z,97078.20
2019-05-16T10:55:04.178Z,97077.98
2019-05-16T10:57:31.136Z,97074.91
2019-05-16T11:00:08.858Z,97071.92
2019-05-16T11:02:28.609Z,97067.50
2019-05-16T11:05:02.837Z,97063.52
2019-05-16T11:07:29.425Z,97065.65
2019-05-16T11:10:01.376Z,97068.08
2019-05-16T11:12:22.916Z,97067.61
2019-05-16T11:14:54.543Z,97068.36
2019-05-16T11:17:27.662Z,97065.80
2019-05-16T11:19:55.550Z,97070.11
2019-05-16T11:22:29.986Z,97066.23
2019-05-16T11:24:59.870Z,97060.97
2019-05-16T11:27:26.506Z,97062.94
2019-05-16T11:29:56.624Z,97069.30
2019-05-16T11:32:23.575Z,97065.63
2019-05-16T11:34:50.306Z,97066.94
2019-05-16T11:37:19.752Z,97059.56
2019-05-16T11:39:46.641Z,97064.78
2019-05-16T11:42:13.281Z,97061.72
2019-05-16T11:44:42.204Z,97058.11
2019-05-16T11:47:09.261Z,97056.64
2019-05-16T11:49:36.918Z,97055.60
2019-05-16T11:52:07.448Z,97055.12
2019-05-16T11:54:34.225Z,97057.77
2019-05-16T11:57:01.433Z,97054.20
2019-05-16T12:02:04.370Z,97056.89
2019-05-16T12:04:34.360Z,97061.48
2019-05-16T12:07:01.157Z,97061.57
2019-05-16T12:12:21.894Z,97061.73
2019-05-16T12:14:51.024Z,97059.64
2019-05-16T12:17:18.196Z,97061.65
2019-05-16T12:19:48.259Z,97062.09
2019-05-16T12:22:18.295Z,97065.86
2019-05-16T12:24:44.409Z,97066.32
2019-05-16T12:27:11.305Z,97064.30
2019-05-16T12:29:40.107Z,97062.30
2019-05-16T12:32:07.855Z,97067.89
2019-05-16T12:34:36.873Z,97067.08
2019-05-16T12:37:08.270Z,97068.53
2019-05-16T12:39:37.770Z,97068.72
2019-05-16T12:42:03.511Z,97067.53
2019-05-16T12:44:32.333Z,97069.97
2019-05-16T12:46:59.097Z,97068.14
2019-05-16T12:49:25.715Z,97069.74
2019-05-16T12:51:57.034Z,97075.06
2019-05-16T12:54:23.967Z,97072.36
2019-05-16T12:56:52.731Z,97067.70
2019-05-16T12:59:21.856Z,97065.47
2019-05-16T13:01:48.549Z,97067.70
2019-05-16T13:04:18.897Z,97060.69
2019-05-16T13:06:47.110Z,97065.34
2019-05-16T13:09:13.781Z,97067.85
2019-05-16T13:11:40.724Z,97064.14
2019-05-16T13:14:11.301Z,97073.22
2019-05-16T13:16:37.744Z,97070.03
2019-05-16T13:19:06.843Z,97060.46
2019-05-16T13:29:11.070Z,97064.52
2019-05-16T13:31:37.963Z,97063.94
2019-05-16T13:34:07.435Z,97065.52
2019-05-16T13:36:34.291Z,97069.56
2019-05-16T13:39:02.573Z,97064.44
2019-05-16T13:41:34.357Z,97065.20
2019-05-16T13:44:13.912Z,97064.27
2019-05-16T13:46:28.582Z,97061.75
2019-05-16T13:48:57.268Z,97063.09
2019-05-16T13:51:24.118Z,97058.30
2019-05-16T13:53:50.736Z,97060.77
2019-05-16T13:56:20.235Z,97058.45
2019-05-16T13:58:47.158Z,97054.41
2019-05-16T14:01:13.909Z,97054.53
2019-05-16T14:03:43.190Z,97049.95
2019-05-16T14:06:09.904Z,97055.31
2019-05-16T14:08:39.496Z,97055.94
2019-05-16T14:11:10.988Z,97058.28
2019-05-16T14:13:37.847Z,97056.63
2019-05-16T14:16:07.101Z,97056.12
2019-05-16T14:18:38.039Z,97063.44
2019-05-16T14:21:06.885Z,97066.23
2019-05-16T14:23:33.580Z,97061.09
2019-05-16T14:28:37.184Z,97065.15
2019-05-16T14:31:07.221Z,97067.12
2019-05-16T14:33:36.710Z,97066.04
2019-05-16T14:36:07.489Z,97070.72
2019-05-16T14:38:37.735Z,97069.47
2019-05-16T14:41:04.639Z,97072.12
2019-05-16T14:43:36.934Z,97071.11
2019-05-16T14:46:07.044Z,97076.28
2019-05-16T14:48:32.455Z,97073.87
2019-05-16T14:51:02.528Z,97079.29
2019-05-16T14:53:32.328Z,97074.75
2019-05-16T14:56:02.532Z,97074.70
2019-05-16T14:58:57.839Z,97079.97
2019-05-16T15:01:31.627Z,97082.33
2019-05-16T15:04:02.704Z,97079.28
2019-05-16T15:06:29.766Z,97085.14
2019-05-16T15:08:58.205Z,97090.78
2019-05-16T15:11:28.486Z,97090.84
2019-05-16T15:13:58.209Z,97083.56
2019-05-16T15:16:27.296Z,97086.61
2019-05-16T15:18:59.748Z,97085.08
2019-05-16T15:21:28.355Z,97087.58
2019-05-16T15:24:00.944Z,97094.36
2019-05-16T15:26:31.379Z,97086.47
2019-05-16T15:28:59.201Z,97086.31
2019-05-16T15:31:36.295Z,97089.92
2019-05-16T15:36:37.504Z,97087.29
2019-05-16T15:39:07.839Z,97087.55
2019-05-16T15:41:39.657Z,97095.17
2019-05-16T15:49:19.561Z,97093.36
2019-05-16T15:51:47.301Z,97089.78
2019-05-16T15:54:20.390Z,97083.77
2019-05-16T15:56:50.377Z,97094.64
2019-05-16T15:59:18.128Z,97089.86
2019-05-16T16:01:47.427Z,97084.19
2019-05-16T16:04:18.367Z,97078.77
2019-05-16T16:06:49.090Z,97082.78
2019-05-16T16:09:17.458Z,97081.34
2019-05-16T16:11:48.675Z,97083.48
2019-05-16T16:14:17.174Z,97080.98
2019-05-16T16:16:46.345Z,97077.69
2019-05-16T16:19:17.453Z,97079.31
2019-05-16T16:21:47.326Z,97082.23
2019-05-16T16:24:18.908Z,97084.24
2019-05-16T16:34:28.542Z,97085.48
2019-05-16T16:36:56.933Z,97077.13
2019-05-16T16:39:31.076Z,97080.04
2019-05-16T16:42:01.516Z,97076.19
2019-05-16T16:44:37.485Z,97075.73
2019-05-16T16:47:06.711Z,97076.25
2019-05-16T16:54:44.607Z,97079.96
2019-05-16T16:57:11.724Z,97083.72
2019-05-16T16:59:38.833Z,97070.29
2019-05-16T17:02:10.520Z,97078.04
2019-05-16T17:04:38.706Z,97084.13
2019-05-16T17:07:07.173Z,97083.94
2019-05-16T17:12:10.640Z,97086.20
2019-05-16T17:14:39.983Z,97090.98
2019-05-16T17:17:07.126Z,97097.11
2019-05-16T17:22:17.001Z,97098.25
2019-05-16T17:24:40.548Z,97093.58
2019-05-16T17:27:09.793Z,97098.77
2019-05-16T17:29:38.809Z,97095.94
2019-05-16T17:32:09.919Z,97101.70
2019-05-16T17:34:34.667Z,97111.50
2019-05-16T17:37:08.990Z,97106.73
2019-05-16T17:39:34.208Z,97110.00
2019-05-16T17:42:03.712Z,97108.28
2019-05-16T17:44:32.323Z,97108.64
2019-05-16T17:46:59.266Z,97108.58
2019-05-16T17:49:29.866Z,97102.84
2019-05-16T17:51:59.147Z,97103.19
2019-05-16T17:54:26.757Z,97109.58
2019-05-16T17:56:53.932Z,97110.63
2019-05-16T18:01:57.528Z,97111.34
2019-05-16T18:04:26.538Z,97112.25
2019-05-16T18:06:52.654Z,97118.50
2019-05-16T18:09:21.303Z,97114.45
2019-05-16T18:11:47.972Z,97114.13
2019-05-16T18:14:16.955Z,97118.91
2019-05-16T18:16:53.727Z,97117.17
2019-05-16T18:19:19.689Z,97115.53
2019-05-16T18:21:46.462Z,97115.13
2019-05-16T18:24:16.711Z,97112.48
2019-05-16T18:26:43.716Z,97114.36
2019-05-16T18:29:10.318Z,97116.67
2019-05-16T18:31:38.983Z,97118.59
2019-05-16T18:34:07.354Z,97119.95
2019-05-16T18:36:34.199Z,97118.63
2019-05-16T18:39:03.822Z,97115.88
2019-05-16T18:41:30.511Z,97120.65
2019-05-16T18:43:57.140Z,97116.59
2019-05-16T18:46:26.906Z,97124.84
2019-05-16T18:51:29.274Z,97117.40
2019-05-16T18:54:00.658Z,97116.05
2019-05-16T18:56:27.352Z,97121.22
2019-05-16T18:58:53.959Z,97135.92
2019-05-16T19:01:23.671Z,97126.36
2019-05-16T19:03:50.276Z,97130.63
2019-05-16T19:06:17.088Z,97138.42
2019-05-16T19:08:45.945Z,97139.76
2019-05-16T19:11:12.535Z,97141.36
2019-05-16T19:13:39.227Z,97144.76
2019-05-16T19:16:08.196Z,97139.44
2019-05-16T19:18:36.789Z,97144.75
2019-05-16T19:21:03.135Z,97149.11
2019-05-16T19:23:33.836Z,97150.93
2019-05-16T19:26:00.678Z,97148.34
2019-05-16T19:28:28.696Z,97154.63
2019-05-16T19:30:57.484Z,97151.80
2019-05-16T19:33:24.386Z,97150.77
2019-05-16T19:35:51.059Z,97154.12
2019-05-16T19:38:20.677Z,97154.22
2019-05-16T19:40:47.314Z,97144.53
2019-05-16T19:43:13.923Z,97149.93
2019-05-16T19:45:43.277Z,97148.75
2019-05-16T19:48:10.121Z,97147.02
2019-05-16T19:50:37.393Z,97147.66
2019-05-16T19:53:07.722Z,97150.56
2019-05-16T19:55:36.595Z,97150.82
2019-05-16T19:58:03.135Z,97154.41
2019-05-16T20:00:31.556Z,97154.30
2019-05-16T20:02:58.188Z,97153.91
2019-05-16T20:05:26.691Z,97153.11
2019-05-16T20:07:58.361Z,97150.18
2019-05-16T20:10:26.975Z,97149.78
2019-05-16T20:12:53.285Z,97144.55
2019-05-16T20:15:22.600Z,97151.92
2019-05-16T20:17:56.112Z,97140.95
2019-05-16T20:20:18.651Z,97148.73
2019-05-16T20:22:47.277Z,97145.34
2019-05-16T20:25:16.365Z,97143.78
2019-05-16T20:27:43.298Z,97143.56
2019-05-16T20:30:13.154Z,97141.17
2019-05-16T20:32:39.764Z,97145.28
2019-05-16T20:35:08.785Z,97141.50
2019-05-16T20:37:36.872Z,97142.30
2019-05-16T20:40:03.512Z,97141.91
2019-05-16T20:42:30.397Z,97142.87
2019-05-16T20:44:59.722Z,97144.23
2019-05-16T20:47:27.189Z,97141.36
2019-05-16T20:49:53.970Z,97144.41
2019-05-16T20:52:26.753Z,97141.78
2019-05-16T20:54:52.980Z,97141.22
2019-05-16T20:57:19.619Z,97143.00
2019-05-16T20:59:49.191Z,97147.61
2019-05-16T21:02:16.414Z,97140.72
2019-05-16T21:04:43.213Z,97142.97
2019-05-16T21:07:12.203Z,97143.30
2019-05-16T21:09:38.841Z,97144.41
2019-05-16T21:12:08.044Z,97143.15
2019-05-16T21:14:35.926Z,97139.53
2019-05-16T21:17:02.507Z,97131.51
2019-05-16T21:19:29.116Z,97135.08
2019-05-16T21:24:31.046Z,97133.52
2019-05-16T21:26:57.912Z,97133.94
2019-05-16T21:29:27.513Z,97131.25
2019-05-16T21:31:56.605Z,97130.23
2019-05-16T21:34:23.234Z,97133.20
2019-05-16T21:36:50.123Z,97132.92
2019-05-16T21:39:20.698Z,97131.29
2019-05-16T21:41:47.578Z,97126.51
2019-05-16T21:44:14.178Z,97123.41
2019-05-16T21:46:46.902Z,97125.50
2019-05-16T21:49:13.718Z,97121.44
2019-05-16T21:51:40.328Z,97125.53
2019-05-16T21:54:09.368Z,97128.77
2019-05-16T21:56:37.265Z,97127.24
2019-05-16T21:59:04.231Z,97124.91
2019-05-16T22:01:37.330Z,97123.44
2019-05-16T22:04:04.271Z,97125.88
2019-05-16T22:06:31.100Z,97129.51
2019-05-16T22:08:59.612Z,97121.30
2019-05-16T22:11:26.434Z,97123.44
2019-05-16T22:13:53.035Z,97118.38
2019-05-16T22:16:22.632Z,97124.00
2019-05-16T22:18:49.235Z,97118.70
2019-05-16T22:21:16.698Z,97113.99
2019-05-16T22:23:46.470Z,97111.37
2019-05-16T22:26:13.254Z,97109.66
2019-05-16T22:28:39.861Z,97112.55
2019-05-16T22:31:08.695Z,97104.87
2019-05-16T22:33:37.281Z,97113.15
2019-05-16T22:36:03.612Z,97109.77
2019-05-16T22:38:31.969Z,97100.77
2019-05-16T22:40:58.576Z,97105.51
2019-05-16T22:43:26.615Z,97106.55
2019-05-16T22:45:57.408Z,97104.53
2019-05-16T22:48:26.669Z,97099.57
2019-05-16T22:50:53.554Z,97098.38
2019-05-16T22:55:56.550Z,97105.48
2019-05-16T22:58:22.723Z,97108.69
2019-05-16T23:00:49.599Z,97102.83
2019-05-16T23:03:18.400Z,97101.78
2019-05-16T23:05:47.236Z,97104.78
2019-05-16T23:08:13.334Z,97099.02
2019-05-16T23:13:17.006Z,97090.70
2019-05-16T23:15:43.751Z,97085.70
2019-05-16T23:18:10.360Z,97087.49
2019-05-16T23:20:38.938Z,97087.81
2019-05-16T23:23:07.135Z,97084.71
2019-05-16T23:25:34.333Z,97080.53
2019-05-16T23:28:02.973Z,97083.25
2019-05-16T23:30:29.591Z,97083.36
2019-05-16T23:32:56.385Z,97079.22
2019-05-16T23:35:26.904Z,97078.08
2019-05-16T23:37:53.547Z,97070.50
2019-05-16T23:40:20.181Z,97074.03
2019-05-16T23:42:48.642Z,97077.83
2019-05-16T23:45:17.106Z,97070.08
2019-05-16T23:47:43.610Z,97074.27
2019-05-16T23:50:12.553Z,97067.53
2019-05-16T23:52:39.159Z,97062.61
2019-05-16T23:55:08.176Z,97057.87
2019-05-16T23:57:37.760Z,97057.48
